Craig, Alaska
Current Conditions -  °F | °C
As of 6:53 PM on Friday 28 Nov 2014 (Local Time) from PAKW Reporting Station
Clear Clear  
Wind Chill: 15°   Ceiling: Unl
Heat Index: 24°   Visibility: 10mi
Dew Point: 10°   Wind: 8mph
Humidity: 55%   Direction: 30°NNE
Pressure: 30.13"   Gusts: NA
Location:  55.47°N, 133.13°W
Report Text: PAKW 290353Z AUTO 03007KT 10SM CLR M04/M12 A3013 RMK AO2 SLP206 T10441122 TSNO
Loading
Personal Weather Stations






























Interactive Weather Map New forecast layout! Learn more

10-Day Weather Forecast

Advertisements
Track Severe Weather on mobile